Frisbie, Pennsylvania
Current Conditions -  °F | °C
As of 8:14 PM on Wednesday 26 Nov 2014 (Local Time) from KRDG Reporting Station
Light Snow Light Snow  
Wind Chill: 29°   Ceiling: 3800
Heat Index: 35°   Visibility: 2.5mi
Dew Point: 31°   Wind: 8mph
Humidity: 85%   Direction: 330°NNW
Pressure: 29.9"   Gusts: NA
Location:  40.633°N, 76.068°W
Report Text: KRDG 270114Z 33007KT 2 1/2SM -SN OVC038 02/M01 A2990 RMK AO2 SFC VIS 9 P0001 T00171006
Loading
Personal Weather Stations






























Interactive Weather Map New forecast layout! Learn more

10-Day Weather Forecast

Advertisements
Track Severe Weather on mobile